Time;durP1;ratioP1;P1;durP2;ratioP2;P2;SDS_P1;SDS_P2;PMS_P1;PMS_P2;Temp;Humidity;BMP_temperature;BMP_pressure;BME280_temperature;BME280_humidity;BME280_pressure;Samples;Min_cycle;Max_cycle;Signal;HPM_P1;HPM_P2
2022/03/18 00:00:21;;;;;;;0.20;0.10;;;3.50;99.90;;;;;;5027585;28;20049;-78
2022/03/18 00:02:48;;;;;;;0.28;0.28;;;3.50;99.90;;;;;;5047189;28;20356;-78
2022/03/18 00:05:14;;;;;;;0.00;0.00;;;3.50;99.90;;;;;;5044090;28;20048;-78
2022/03/18 00:07:41;;;;;;;1.05;0.65;;;3.50;99.90;;;;;;5061190;28;22189;-78
2022/03/18 00:10:08;;;;;;;1.00;0.22;;;3.40;99.90;;;;;;5042328;28;20073;-78
2022/03/18 00:12:34;;;;;;;0.10;0.10;;;3.30;99.90;;;;;;5059707;28;20067;-78
2022/03/18 00:15:00;;;;;;;0.57;0.28;;;3.40;99.90;;;;;;5045535;28;20056;-77
2022/03/18 00:17:26;;;;;;;1.65;0.30;;;3.30;99.90;;;;;;5059574;28;20560;-77
2022/03/18 00:19:51;;;;;;;0.10;0.10;;;3.30;99.90;;;;;;5044594;28;20037;-77
2022/03/18 00:22:18;;;;;;;0.10;0.10;;;3.30;99.90;;;;;;5055952;28;20543;-77
2022/03/18 00:24:44;;;;;;;0.00;0.00;;;3.20;99.90;;;;;;5023167;28;20036;-77
2022/03/18 00:27:10;;;;;;;0.20;0.10;;;3.20;99.90;;;;;;5060609;28;20657;-77
2022/03/18 00:29:36;;;;;;;0.00;0.00;;;3.20;99.90;;;;;;5041800;28;20494;-77
2022/03/18 00:32:02;;;;;;;0.00;0.00;;;3.20;99.90;;;;;;5045384;28;20631;-77
2022/03/18 00:34:28;;;;;;;0.10;0.10;;;3.10;99.90;;;;;;5043878;28;20102;-78
2022/03/18 00:36:54;;;;;;;0.30;0.30;;;3.10;99.90;;;;;;5039636;28;20049;-78
2022/03/18 00:39:20;;;;;;;3.20;0.30;;;3.10;99.90;;;;;;5043613;28;20382;-78
2022/03/18 00:41:46;;;;;;;0.52;0.10;;;3.10;99.90;;;;;;5027145;28;20040;-78
2022/03/18 00:44:11;;;;;;;0.00;0.00;;;3.20;99.90;;;;;;5044345;28;20037;-78
2022/03/18 00:46:37;;;;;;;0.00;0.00;;;3.20;99.90;;;;;;5027006;28;20032;-78
2022/03/18 00:52:04;;;;;;;0.03;0.03;;;3.10;99.90;;;;;;5042317;28;20127;-78
2022/03/18 00:54:34;;;;;;;0.35;0.28;;;3.10;99.90;;;;;;5057243;28;20499;-78
2022/03/18 00:57:01;;;;;;;0.00;0.00;;;3.10;99.90;;;;;;5060219;28;20064;-77
2022/03/18 00:59:27;;;;;;;0.65;0.63;;;3.10;99.90;;;;;;5028184;28;20037;-77
2022/03/18 01:01:53;;;;;;;2.08;0.47;;;3.10;99.90;;;;;;5057397;28;20064;-77
2022/03/18 01:04:20;;;;;;;0.05;0.05;;;3.10;99.90;;;;;;5027942;28;20068;-77
2022/03/18 01:06:46;;;;;;;0.15;0.15;;;3.10;99.90;;;;;;5058407;28;20037;-77
2022/03/18 01:09:12;;;;;;;0.85;0.40;;;3.10;99.90;;;;;;5043819;28;20606;-77
2022/03/18 01:11:37;;;;;;;0.43;0.43;;;3.10;99.90;;;;;;5027960;28;20131;-77
2022/03/18 01:14:03;;;;;;;0.00;0.00;;;3.10;99.90;;;;;;5025454;28;20061;-77
2022/03/18 01:16:29;;;;;;;0.52;0.40;;;3.10;99.90;;;;;;5043891;28;20080;-77
2022/03/18 01:18:54;;;;;;;1.17;0.40;;;3.10;99.90;;;;;;5059240;28;20037;-77
2022/03/18 01:21:20;;;;;;;0.20;0.20;;;3.00;99.90;;;;;;5056037;28;20083;-78
2022/03/18 01:23:46;;;;;;;0.15;0.15;;;3.10;99.90;;;;;;5044023;28;20394;-78
2022/03/18 01:26:11;;;;;;;0.70;0.55;;;3.00;99.90;;;;;;5043353;28;20089;-78
2022/03/18 01:28:37;;;;;;;0.57;0.32;;;3.00;99.90;;;;;;5043262;28;20110;-78
2022/03/18 01:31:03;;;;;;;0.00;0.00;;;3.00;99.90;;;;;;5055105;28;21009;-78
2022/03/18 01:33:28;;;;;;;0.20;0.20;;;3.00;99.90;;;;;;5039424;28;20064;-78
2022/03/18 01:35:54;;;;;;;0.35;0.35;;;3.00;99.90;;;;;;5042659;28;20309;-78
2022/03/18 01:38:19;;;;;;;0.45;0.20;;;3.00;99.90;;;;;;5039778;28;20037;-78
2022/03/18 01:40:45;;;;;;;0.65;0.45;;;3.00;99.90;;;;;;5043912;28;20094;-78
2022/03/18 01:43:11;;;;;;;0.73;0.68;;;3.00;99.90;;;;;;5046264;28;20556;-78
2022/03/18 01:45:37;;;;;;;0.10;0.10;;;3.00;99.90;;;;;;5024916;28;20487;-78
2022/03/18 01:48:05;;;;;;;0.20;0.20;;;3.00;99.90;;;;;;5042277;28;20055;-78
2022/03/18 01:50:31;;;;;;;0.00;0.00;;;3.00;99.90;;;;;;5061479;28;20479;-78
2022/03/18 01:52:57;;;;;;;0.10;0.10;;;3.00;99.90;;;;;;5058366;28;20068;-78
2022/03/18 01:55:24;;;;;;;0.20;0.20;;;3.00;99.90;;;;;;5057537;28;20570;-78
2022/03/18 01:57:50;;;;;;;0.60;0.60;;;3.00;99.90;;;;;;5044339;28;20041;-78
2022/03/18 02:00:19;;;;;;;0.60;0.57;;;3.00;99.90;;;;;;5040713;28;20033;-78
2022/03/18 02:02:45;;;;;;;0.15;0.10;;;3.00;99.90;;;;;;5056824;28;20143;-78
2022/03/18 02:05:11;;;;;;;0.15;0.10;;;3.00;99.90;;;;;;5036251;28;20091;-78
2022/03/18 02:07:37;;;;;;;0.00;0.00;;;3.00;99.90;;;;;;5044434;28;20052;-78
2022/03/18 02:10:04;;;;;;;0.10;0.10;;;3.00;99.90;;;;;;5044879;28;20037;-78
2022/03/18 02:12:30;;;;;;;0.10;0.08;;;3.00;99.90;;;;;;5043107;28;21326;-78
2022/03/18 02:14:55;;;;;;;0.55;0.35;;;3.00;99.90;;;;;;5038215;28;20498;-78
2022/03/18 02:17:21;;;;;;;0.77;0.30;;;3.00;99.90;;;;;;5037007;28;20416;-78
2022/03/18 02:19:48;;;;;;;0.20;0.20;;;3.00;99.90;;;;;;5040812;28;20047;-78
2022/03/18 02:22:18;;;;;;;0.20;0.20;;;3.00;99.90;;;;;;5041227;28;20429;-78
2022/03/18 02:24:46;;;;;;;1.00;0.55;;;3.00;99.90;;;;;;5041012;28;20406;-78
2022/03/18 02:27:12;;;;;;;0.20;0.20;;;3.00;99.90;;;;;;5025189;28;20051;-78
2022/03/18 02:29:38;;;;;;;0.15;0.15;;;3.00;99.90;;;;;;5039934;28;20076;-78
2022/03/18 02:32:05;;;;;;;0.10;0.10;;;3.00;99.90;;;;;;5025749;28;20153;-78
2022/03/18 02:34:32;;;;;;;1.27;0.20;;;3.00;99.90;;;;;;5039574;28;20049;-78
2022/03/18 02:36:58;;;;;;;0.10;0.10;;;3.00;99.90;;;;;;5054312;28;20051;-78
2022/03/18 02:39:24;;;;;;;0.88;0.28;;;3.00;99.90;;;;;;5024249;28;20028;-78
2022/03/18 02:41:50;;;;;;;0.43;0.43;;;3.00;99.90;;;;;;5041406;28;20715;-78
2022/03/18 02:44:15;;;;;;;0.20;0.20;;;3.10;99.90;;;;;;5044118;28;20049;-78
2022/03/18 02:46:41;;;;;;;0.17;0.17;;;3.10;99.90;;;;;;5024734;28;20037;-78
2022/03/18 02:49:07;;;;;;;0.38;0.38;;;3.20;99.90;;;;;;5040670;28;20059;-78
2022/03/18 02:51:37;;;;;;;0.20;0.20;;;3.20;99.90;;;;;;5043958;28;20041;-78
2022/03/18 02:54:04;;;;;;;0.10;0.10;;;3.20;99.90;;;;;;5037968;28;20037;-78
2022/03/18 02:56:31;;;;;;;0.40;0.40;;;3.20;99.90;;;;;;5042737;28;20033;-78
2022/03/18 02:58:56;;;;;;;0.00;0.00;;;3.20;99.90;;;;;;5026758;28;20040;-78
2022/03/18 03:01:22;;;;;;;0.10;0.10;;;3.20;99.90;;;;;;5027757;28;20136;-78
2022/03/18 03:03:48;;;;;;;1.48;0.32;;;3.20;99.90;;;;;;5039619;28;20025;-78
2022/03/18 03:08:57;;;;;;;1.85;0.30;;;3.20;99.90;;;;;;5043909;28;20462;-78
2022/03/18 03:11:23;;;;;;;0.43;0.38;;;3.10;99.90;;;;;;5057942;28;20076;-78
2022/03/18 03:13:52;;;;;;;0.08;0.08;;;3.00;99.90;;;;;;5025870;28;20099;-78
2022/03/18 03:16:21;;;;;;;1.10;0.22;;;3.00;99.90;;;;;;5039441;28;20050;-78
2022/03/18 03:18:47;;;;;;;0.30;0.30;;;2.90;99.90;;;;;;5027371;28;20025;-78
2022/03/18 03:21:14;;;;;;;0.20;0.20;;;2.90;99.90;;;;;;5040716;28;20048;-78
2022/03/18 03:23:40;;;;;;;0.28;0.20;;;2.90;99.90;;;;;;5058213;28;20445;-78
2022/03/18 03:26:06;;;;;;;0.10;0.10;;;2.80;99.90;;;;;;5025119;28;20045;-78
2022/03/18 03:28:32;;;;;;;0.10;0.10;;;2.80;99.90;;;;;;5060263;28;20033;-78
2022/03/18 03:30:57;;;;;;;0.15;0.15;;;2.80;99.90;;;;;;5058863;28;20036;-78
2022/03/18 03:33:24;;;;;;;0.45;0.25;;;2.70;99.90;;;;;;5056822;28;20044;-78
2022/03/18 03:35:50;;;;;;;0.00;0.00;;;2.70;99.90;;;;;;5040374;28;20041;-78
2022/03/18 03:38:16;;;;;;;0.00;0.00;;;2.70;99.90;;;;;;5024152;28;20029;-78
2022/03/18 03:40:43;;;;;;;0.95;0.57;;;2.70;99.90;;;;;;5058743;28;20048;-78
2022/03/18 03:43:09;;;;;;;0.10;0.10;;;2.70;99.90;;;;;;5057315;28;20036;-78
2022/03/18 03:45:38;;;;;;;0.25;0.22;;;2.70;99.90;;;;;;5041875;28;20063;-78
2022/03/18 03:48:06;;;;;;;0.40;0.40;;;2.60;99.90;;;;;;5058364;28;20044;-78
2022/03/18 03:50:32;;;;;;;0.20;0.20;;;2.60;99.90;;;;;;5057315;28;20170;-78
2022/03/18 03:52:58;;;;;;;0.00;0.00;;;2.70;99.90;;;;;;5060384;28;20398;-78
2022/03/18 03:55:23;;;;;;;0.30;0.30;;;2.70;99.90;;;;;;5026104;28;20095;-78
2022/03/18 03:57:49;;;;;;;0.00;0.00;;;2.70;99.90;;;;;;5044557;28;20139;-78
2022/03/18 04:00:15;;;;;;;0.45;0.45;;;2.70;99.90;;;;;;5045281;28;20042;-78
2022/03/18 04:02:43;;;;;;;0.32;0.32;;;2.70;99.90;;;;;;5046439;28;20033;-78
2022/03/18 04:05:09;;;;;;;0.30;0.30;;;2.70;99.90;;;;;;5060168;28;20047;-78
2022/03/18 04:07:37;;;;;;;0.30;0.30;;;2.80;99.90;;;;;;5025443;28;20111;-78
2022/03/18 04:10:04;;;;;;;0.10;0.10;;;2.80;99.90;;;;;;5061123;28;20105;-78
2022/03/18 04:12:32;;;;;;;0.35;0.35;;;2.80;99.90;;;;;;5044478;28;20139;-78
2022/03/18 04:14:58;;;;;;;0.30;0.30;;;2.80;99.90;;;;;;5063734;28;20095;-78
2022/03/18 04:17:26;;;;;;;0.00;0.00;;;2.80;99.90;;;;;;5041959;28;20158;-78
2022/03/18 04:19:53;;;;;;;1.77;0.30;;;2.80;99.90;;;;;;5043261;28;20080;-78
2022/03/18 04:22:19;;;;;;;0.70;0.32;;;2.90;99.90;;;;;;5042030;28;20039;-78
2022/03/18 04:24:45;;;;;;;0.10;0.10;;;2.90;99.90;;;;;;5029459;28;20052;-78
2022/03/18 04:27:10;;;;;;;0.15;0.15;;;2.90;99.90;;;;;;5028094;28;20123;-78
2022/03/18 04:29:36;;;;;;;0.45;0.20;;;2.90;99.90;;;;;;5060074;28;20065;-78
2022/03/18 04:32:02;;;;;;;0.10;0.10;;;2.90;99.90;;;;;;5042746;28;20068;-78
2022/03/18 04:34:27;;;;;;;0.30;0.30;;;2.90;99.90;;;;;;5056134;28;20036;-78
2022/03/18 04:36:53;;;;;;;0.30;0.30;;;2.90;99.90;;;;;;5042282;28;20049;-78
2022/03/18 04:39:19;;;;;;;0.00;0.00;;;2.90;99.90;;;;;;5043156;28;20040;-78
2022/03/18 04:41:44;;;;;;;0.10;0.10;;;2.90;99.90;;;;;;5026444;28;20824;-78
2022/03/18 04:44:10;;;;;;;0.00;0.00;;;2.90;99.90;;;;;;5045708;28;20098;-78
2022/03/18 04:46:36;;;;;;;0.20;0.20;;;2.90;99.90;;;;;;5060269;28;20041;-78
2022/03/18 04:49:01;;;;;;;0.20;0.20;;;2.90;99.90;;;;;;5041770;28;20095;-78
2022/03/18 04:51:27;;;;;;;0.00;0.00;;;2.80;99.90;;;;;;5060979;28;20040;-78
2022/03/18 04:53:53;;;;;;;0.30;0.30;;;2.80;99.90;;;;;;5043387;28;20123;-78
2022/03/18 04:59:03;;;;;;;0.10;0.10;;;2.70;99.90;;;;;;5059805;28;20033;-78
2022/03/18 05:01:29;;;;;;;0.20;0.20;;;2.70;99.90;;;;;;5044108;28;20063;-78
2022/03/18 05:03:55;;;;;;;1.08;0.40;;;2.70;99.90;;;;;;5042133;28;20222;-78
2022/03/18 05:06:21;;;;;;;0.10;0.10;;;2.60;99.90;;;;;;5029237;28;20037;-78
2022/03/18 05:08:47;;;;;;;0.10;0.10;;;2.60;99.90;;;;;;5041697;28;20048;-78
2022/03/18 05:11:13;;;;;;;0.22;0.20;;;2.50;99.90;;;;;;5028678;28;20040;-78
2022/03/18 05:13:38;;;;;;;0.13;0.13;;;2.60;99.90;;;;;;5054778;28;20084;-78
2022/03/18 05:16:05;;;;;;;0.40;0.40;;;2.50;99.90;;;;;;5042614;28;20414;-78
2022/03/18 05:18:30;;;;;;;0.20;0.20;;;2.60;99.90;;;;;;5058331;28;20080;-78
2022/03/18 05:20:56;;;;;;;5.38;0.88;;;2.60;99.90;;;;;;5025971;28;20061;-78
2022/03/18 05:23:22;;;;;;;0.10;0.10;;;2.60;99.90;;;;;;5041969;28;20033;-79
2022/03/18 05:25:47;;;;;;;0.20;0.20;;;2.60;99.90;;;;;;5041664;28;20056;-78
2022/03/18 05:28:13;;;;;;;0.38;0.25;;;2.60;99.90;;;;;;5057649;28;20040;-78
2022/03/18 05:30:40;;;;;;;0.00;0.00;;;2.60;99.90;;;;;;5042822;28;20141;-78
2022/03/18 05:33:06;;;;;;;0.00;0.00;;;2.50;99.90;;;;;;5040669;28;20683;-78
2022/03/18 05:35:32;;;;;;;0.20;0.20;;;2.50;99.90;;;;;;5043592;28;20041;-78
2022/03/18 05:37:57;;;;;;;0.05;0.05;;;2.50;99.90;;;;;;5026389;28;20029;-78
2022/03/18 05:40:24;;;;;;;0.40;0.32;;;2.50;99.90;;;;;;5029096;28;20359;-78
2022/03/18 05:42:50;;;;;;;0.68;0.43;;;2.50;99.90;;;;;;5057440;28;20089;-78
2022/03/18 05:45:16;;;;;;;0.20;0.20;;;2.50;99.90;;;;;;5043344;28;20041;-78
2022/03/18 05:47:41;;;;;;;0.10;0.10;;;2.40;99.90;;;;;;5022092;28;20045;-78
2022/03/18 05:50:08;;;;;;;0.10;0.10;;;2.50;99.90;;;;;;5043709;28;20084;-78
2022/03/18 05:52:35;;;;;;;0.85;0.57;;;2.50;99.90;;;;;;5024395;28;20102;-78
2022/03/18 05:55:01;;;;;;;0.10;0.10;;;2.40;99.90;;;;;;5023962;28;20636;-78
2022/03/18 05:57:27;;;;;;;0.10;0.10;;;2.40;99.90;;;;;;5060331;28;20040;-78
2022/03/18 05:59:57;;;;;;;0.10;0.10;;;2.40;99.90;;;;;;5023557;28;20029;-78
2022/03/18 06:02:23;;;;;;;0.10;0.10;;;2.40;99.90;;;;;;5041345;28;20044;-78
2022/03/18 06:04:49;;;;;;;0.57;0.47;;;2.30;99.90;;;;;;5042122;28;20041;-78
2022/03/18 06:07:15;;;;;;;0.40;0.10;;;2.40;99.90;;;;;;5041013;28;20144;-78
2022/03/18 06:12:25;;;;;;;0.10;0.10;;;2.40;99.90;;;;;;5041297;28;20053;-77
2022/03/18 06:14:51;;;;;;;0.30;0.25;;;2.40;99.90;;;;;;5041488;28;20041;-76
2022/03/18 06:17:16;;;;;;;0.25;0.25;;;2.40;99.90;;;;;;5054779;28;20078;-76
2022/03/18 06:19:42;;;;;;;0.20;0.20;;;2.40;99.90;;;;;;5040235;28;20028;-77
2022/03/18 06:22:08;;;;;;;0.47;0.10;;;2.40;99.90;;;;;;5041577;28;20037;-77
2022/03/18 06:24:35;;;;;;;0.28;0.22;;;2.40;99.90;;;;;;5022288;28;20036;-77
2022/03/18 06:27:01;;;;;;;0.10;0.10;;;2.40;99.90;;;;;;5039161;28;20082;-78
2022/03/18 06:29:28;;;;;;;0.65;0.22;;;2.40;99.90;;;;;;5022848;28;20032;-79
2022/03/18 06:31:55;;;;;;;0.28;0.28;;;2.50;99.90;;;;;;5054006;28;20044;-77
2022/03/18 06:34:22;;;;;;;0.10;0.10;;;2.50;99.90;;;;;;5025257;28;20053;-78
2022/03/18 06:36:49;;;;;;;0.10;0.10;;;2.50;99.90;;;;;;5061444;28;20459;-78
2022/03/18 06:39:14;;;;;;;0.10;0.10;;;2.50;99.90;;;;;;5039764;28;20509;-78
2022/03/18 06:41:40;;;;;;;0.10;0.10;;;2.50;99.90;;;;;;5034692;28;20029;-78
2022/03/18 06:44:09;;;;;;;0.73;0.73;;;2.60;99.90;;;;;;5042167;28;20033;-78
2022/03/18 06:46:36;;;;;;;3.97;0.47;;;2.60;99.90;;;;;;5024837;28;20040;-78
2022/03/18 06:49:03;;;;;;;0.10;0.10;;;2.60;99.90;;;;;;5040044;28;20180;-78
2022/03/18 06:51:28;;;;;;;0.10;0.10;;;2.70;99.90;;;;;;5039771;28;20047;-78
2022/03/18 06:53:54;;;;;;;0.17;0.17;;;2.70;99.90;;;;;;5038096;28;20080;-78
2022/03/18 06:56:21;;;;;;;0.10;0.10;;;2.70;99.90;;;;;;5022624;28;20083;-78
2022/03/18 06:58:46;;;;;;;1.15;0.50;;;2.80;99.90;;;;;;5037389;28;20087;-78
2022/03/18 07:01:12;;;;;;;0.98;0.55;;;2.80;99.90;;;;;;5056990;28;20068;-78
2022/03/18 07:03:38;;;;;;;0.55;0.50;;;2.90;99.90;;;;;;5032206;28;20215;-79
2022/03/18 07:06:06;;;;;;;0.10;0.10;;;2.90;99.90;;;;;;5039464;28;20100;-79
2022/03/18 07:08:32;;;;;;;0.10;0.10;;;3.00;99.90;;;;;;5021575;28;20167;-79
2022/03/18 07:10:58;;;;;;;1.65;0.70;;;3.00;99.90;;;;;;5038010;28;20167;-80
2022/03/18 07:13:23;;;;;;;0.00;0.00;;;3.00;99.90;;;;;;5056469;28;20516;-78
2022/03/18 07:15:49;;;;;;;0.10;0.10;;;3.10;99.90;;;;;;5024377;28;20064;-79
2022/03/18 07:18:15;;;;;;;0.17;0.17;;;3.10;99.90;;;;;;5036782;28;20048;-79
2022/03/18 07:20:40;;;;;;;0.75;0.63;;;3.20;99.90;;;;;;5018958;28;20051;-79
2022/03/18 07:23:12;;;;;;;0.17;0.17;;;3.30;99.90;;;;;;5036401;28;20478;-79
2022/03/18 07:25:40;;;;;;;0.50;0.50;;;3.40;99.90;;;;;;5059521;28;21518;-79
2022/03/18 07:28:08;;;;;;;0.10;0.10;;;3.40;99.90;;;;;;5059666;28;20090;-79
2022/03/18 07:30:34;;;;;;;0.10;0.10;;;3.50;99.90;;;;;;5044782;28;20124;-80
2022/03/18 07:33:00;;;;;;;0.35;0.35;;;3.60;99.90;;;;;;5043915;28;20395;-81
2022/03/18 07:35:26;;;;;;;0.20;0.20;;;3.70;99.90;;;;;;5060793;28;20041;-79
2022/03/18 07:37:52;;;;;;;0.30;0.30;;;3.70;99.90;;;;;;5037536;28;20068;-79
2022/03/18 07:40:21;;;;;;;1.00;0.40;;;3.80;99.90;;;;;;5044529;28;20079;-79
2022/03/18 07:42:52;;;;;;;0.45;0.17;;;3.80;99.90;;;;;;5036066;28;20083;-79
2022/03/18 07:45:21;;;;;;;0.32;0.32;;;4.00;99.90;;;;;;5055478;28;20472;-79
2022/03/18 07:47:50;;;;;;;3.00;1.13;;;4.10;99.90;;;;;;5039130;28;20068;-79
2022/03/18 07:50:20;;;;;;;1.77;0.52;;;4.10;99.90;;;;;;5041826;28;20478;-79
2022/03/18 07:52:50;;;;;;;0.38;0.38;;;4.20;99.90;;;;;;5037407;28;20086;-78
2022/03/18 07:55:21;;;;;;;0.73;0.73;;;4.40;99.90;;;;;;5047463;28;20063;-79
2022/03/18 07:57:47;;;;;;;0.32;0.30;;;4.40;99.90;;;;;;5046774;28;20044;-79
2022/03/18 08:00:14;;;;;;;0.80;0.45;;;4.50;99.90;;;;;;5042385;28;20035;-79
2022/03/18 08:02:41;;;;;;;0.25;0.25;;;4.70;99.90;;;;;;5041042;28;20409;-79
2022/03/18 08:05:07;;;;;;;2.40;0.55;;;4.70;99.90;;;;;;5044597;28;20128;-79
2022/03/18 08:07:35;;;;;;;0.25;0.20;;;4.80;99.90;;;;;;5028326;28;20201;-79
2022/03/18 08:10:01;;;;;;;0.40;0.20;;;4.90;99.90;;;;;;5061647;28;20033;-79
2022/03/18 08:12:28;;;;;;;0.20;0.20;;;5.00;99.90;;;;;;5027452;28;20049;-79
2022/03/18 08:14:58;;;;;;;1.10;0.63;;;5.10;99.90;;;;;;5031602;28;20419;-78
2022/03/18 08:17:24;;;;;;;0.63;0.38;;;5.20;99.90;;;;;;5038684;28;20035;-79
2022/03/18 08:19:51;;;;;;;0.82;0.30;;;5.30;99.90;;;;;;5062402;28;20029;-79
2022/03/18 08:22:23;;;;;;;0.43;0.43;;;5.40;99.90;;;;;;5041678;28;20124;-79
2022/03/18 08:24:50;;;;;;;1.08;0.50;;;5.40;99.90;;;;;;5041280;28;20045;-79
2022/03/18 08:27:19;;;;;;;0.55;0.30;;;5.50;99.90;;;;;;5042033;28;20059;-78
2022/03/18 08:29:46;;;;;;;0.30;0.30;;;5.50;99.90;;;;;;5057570;28;20041;-79
2022/03/18 08:32:14;;;;;;;1.35;0.60;;;5.60;99.90;;;;;;5041326;28;20041;-79
2022/03/18 08:34:40;;;;;;;0.55;0.47;;;5.60;99.90;;;;;;5039868;28;20041;-78
2022/03/18 08:37:06;;;;;;;0.63;0.52;;;5.60;99.90;;;;;;5032620;28;20033;-78
2022/03/18 08:39:36;;;;;;;1.35;0.60;;;5.70;99.90;;;;;;5044538;28;20041;-78
2022/03/18 08:42:02;;;;;;;0.50;0.50;;;5.70;99.90;;;;;;5061088;28;20045;-79
2022/03/18 08:44:28;;;;;;;0.60;0.40;;;5.80;99.90;;;;;;5037295;28;20056;-79
2022/03/18 08:46:54;;;;;;;0.82;0.55;;;5.80;99.90;;;;;;5019294;28;20501;-79
2022/03/18 08:49:19;;;;;;;0.90;0.68;;;5.90;99.90;;;;;;5025406;28;20041;-79
2022/03/18 08:51:45;;;;;;;2.38;0.68;;;6.00;99.90;;;;;;5039162;28;20234;-77
2022/03/18 08:54:10;;;;;;;1.30;0.80;;;6.10;99.90;;;;;;5050546;28;20479;-79
2022/03/18 08:56:36;;;;;;;0.65;0.35;;;6.20;99.90;;;;;;5044962;28;20045;-78
2022/03/18 08:59:06;;;;;;;0.85;0.30;;;6.30;99.90;;;;;;5025298;28;20029;-78
2022/03/18 09:01:37;;;;;;;0.55;0.47;;;6.30;99.90;;;;;;5040769;28;20514;-78
2022/03/18 09:04:03;;;;;;;0.45;0.45;;;6.40;99.90;;;;;;5044109;28;20403;-78
2022/03/18 09:06:29;;;;;;;1.80;1.08;;;6.40;99.90;;;;;;5058203;28;20049;-78
2022/03/18 09:08:58;;;;;;;0.20;0.20;;;6.40;99.90;;;;;;5030990;28;20049;-79
2022/03/18 09:11:23;;;;;;;0.85;0.52;;;6.50;99.90;;;;;;5041946;28;20101;-78
2022/03/18 09:13:49;;;;;;;0.28;0.20;;;6.60;99.90;;;;;;5051270;28;20507;-78
2022/03/18 09:16:15;;;;;;;0.43;0.43;;;6.60;99.90;;;;;;5025080;28;20048;-78
2022/03/18 09:18:41;;;;;;;0.75;0.20;;;6.70;99.90;;;;;;5056105;28;20037;-78
2022/03/18 09:21:07;;;;;;;0.20;0.10;;;6.80;99.90;;;;;;5041342;28;20037;-78
2022/03/18 09:23:33;;;;;;;0.85;0.57;;;7.00;99.90;;;;;;5043996;28;20053;-78
2022/03/18 09:25:58;;;;;;;0.65;0.45;;;7.10;99.90;;;;;;5039166;28;20475;-78
2022/03/18 09:28:24;;;;;;;1.95;0.98;;;7.20;99.90;;;;;;5036716;28;20447;-79
2022/03/18 09:30:51;;;;;;;0.40;0.30;;;7.20;99.90;;;;;;5058420;28;20101;-78
2022/03/18 09:33:17;;;;;;;1.30;0.30;;;7.30;99.90;;;;;;5035732;28;20045;-78
2022/03/18 09:35:43;;;;;;;0.38;0.38;;;7.40;99.90;;;;;;5019511;28;20040;-78
2022/03/18 09:38:09;;;;;;;0.20;0.20;;;7.50;99.90;;;;;;5027846;28;20426;-78
2022/03/18 09:40:36;;;;;;;0.70;0.47;;;7.50;99.90;;;;;;5039606;28;20450;-78
2022/03/18 09:43:06;;;;;;;1.33;0.50;;;7.60;99.90;;;;;;5026315;28;20067;-78
2022/03/18 09:45:36;;;;;;;0.47;0.43;;;7.70;99.90;;;;;;5048488;28;20045;-78
2022/03/18 09:48:11;;;;;;;0.60;0.47;;;7.70;99.90;;;;;;5039039;28;20045;-78
2022/03/18 09:50:39;;;;;;;1.25;0.63;;;7.70;99.90;;;;;;5036318;28;20052;-79
2022/03/18 09:53:06;;;;;;;0.73;0.47;;;7.80;99.90;;;;;;5036741;28;20502;-78
2022/03/18 09:55:34;;;;;;;0.63;0.43;;;7.70;99.90;;;;;;5021275;28;20056;-78
2022/03/18 09:58:00;;;;;;;2.03;0.40;;;7.80;99.90;;;;;;5025487;28;20450;-78
2022/03/18 10:00:26;;;;;;;0.60;0.40;;;7.80;99.90;;;;;;5020809;28;20040;-78
2022/03/18 10:03:11;;;;;;;0.82;0.40;;;7.80;99.90;;;;;;5033522;28;20033;-79
2022/03/18 10:06:11;;;;;;;0.30;0.20;;;7.90;99.90;;;;;;5039922;28;20048;-85
2022/03/18 10:08:39;;;;;;;0.50;0.35;;;8.00;99.90;;;;;;5022927;28;20529;-78
2022/03/18 10:11:15;;;;;;;0.47;0.22;;;8.00;99.90;;;;;;5032640;28;20056;-78
2022/03/18 10:14:02;;;;;;;0.20;0.20;;;8.10;99.90;;;;;;5050195;28;20080;-78
2022/03/18 10:16:41;;;;;;;0.75;0.68;;;8.20;99.90;;;;;;5038326;28;20036;-78
2022/03/18 10:19:13;;;;;;;0.30;0.30;;;8.20;99.90;;;;;;5037775;28;20144;-78
2022/03/18 10:22:03;;;;;;;0.10;0.10;;;8.30;99.90;;;;;;5035847;28;20716;-78
2022/03/18 10:24:38;;;;;;;0.10;0.10;;;8.40;99.90;;;;;;5039485;28;20037;-78
2022/03/18 10:27:19;;;;;;;0.60;0.60;;;8.40;99.90;;;;;;5039574;28;20112;-78
2022/03/18 10:29:51;;;;;;;0.45;0.32;;;8.40;99.90;;;;;;5052194;28;20529;-79
2022/03/18 10:32:19;;;;;;;0.52;0.50;;;8.50;99.90;;;;;;5050577;28;20498;-79
2022/03/18 10:37:44;;;;;;;1.45;0.80;;;8.60;99.90;;;;;;5041017;28;20565;-79
2022/03/18 10:40:11;;;;;;;0.52;0.35;;;8.60;99.90;;;;;;5035689;28;20033;-80
2022/03/18 10:42:37;;;;;;;0.50;0.32;;;8.70;99.90;;;;;;5038905;28;20048;-79
2022/03/18 10:45:03;;;;;;;0.60;0.40;;;8.70;99.90;;;;;;5023919;28;20052;-79
2022/03/18 10:47:37;;;;;;;0.57;0.30;;;8.80;99.90;;;;;;5027583;28;20045;-80
2022/03/18 10:50:12;;;;;;;0.32;0.32;;;8.90;99.90;;;;;;5041417;28;20043;-80
2022/03/18 10:53:03;;;;;;;0.93;0.63;;;8.90;99.90;;;;;;5038175;28;20052;-80
2022/03/18 10:55:42;;;;;;;1.23;0.68;;;8.90;99.90;;;;;;5058250;28;20041;-81
2022/03/18 10:58:11;;;;;;;0.70;0.45;;;8.90;99.90;;;;;;5026320;28;20079;-81
2022/03/18 11:00:44;;;;;;;0.55;0.47;;;8.90;99.90;;;;;;5036186;28;20067;-80
2022/03/18 11:03:11;;;;;;;0.73;0.35;;;8.90;99.90;;;;;;5044339;28;20108;-80
2022/03/18 11:05:42;;;;;;;0.10;0.08;;;9.00;99.90;;;;;;5046007;28;20132;-80
2022/03/18 11:08:21;;;;;;;1.25;0.50;;;9.10;99.90;;;;;;5041224;28;20044;-80
2022/03/18 11:14:01;;;;;;;0.85;0.47;;;9.20;99.90;;;;;;5045930;28;20469;-79
2022/03/18 11:16:34;;;;;;;1.15;0.40;;;9.30;99.90;;;;;;5042661;28;20034;-80
2022/03/18 11:19:04;;;;;;;1.85;0.75;;;9.30;99.90;;;;;;5041986;28;20033;-77
2022/03/18 11:21:38;;;;;;;0.52;0.20;;;9.40;99.90;;;;;;5046628;28;20440;-80
2022/03/18 11:24:07;;;;;;;0.68;0.52;;;9.40;99.90;;;;;;5024952;28;20285;-80
2022/03/18 11:26:35;;;;;;;1.02;0.70;;;9.50;99.90;;;;;;5039650;28;20081;-80
2022/03/18 11:29:13;;;;;;;0.55;0.30;;;9.60;99.90;;;;;;5034533;28;20112;-80
2022/03/18 11:31:39;;;;;;;1.55;0.32;;;9.70;99.90;;;;;;5040704;28;20048;-80
2022/03/18 11:34:09;;;;;;;1.08;0.43;;;9.70;99.90;;;;;;5024899;28;20478;-80
2022/03/18 11:36:37;;;;;;;0.47;0.20;;;9.80;99.90;;;;;;5042028;28;20124;-80
2022/03/18 11:39:06;;;;;;;1.13;0.45;;;9.90;99.90;;;;;;5035263;28;20048;-81
2022/03/18 11:41:50;;;;;;;0.25;0.20;;;9.80;99.90;;;;;;5035555;28;20045;-81
2022/03/18 11:44:43;;;;;;;1.13;0.52;;;9.80;99.90;;;;;;5030345;28;20033;-81
2022/03/18 11:47:33;;;;;;;0.65;0.35;;;9.80;99.90;;;;;;5024932;28;20036;-80
2022/03/18 11:49:59;;;;;;;0.50;0.30;;;9.80;99.90;;;;;;5037907;28;20048;-80
2022/03/18 11:52:25;;;;;;;0.50;0.32;;;9.80;99.90;;;;;;5041813;28;20044;-80
2022/03/18 11:55:11;;;;;;;2.78;0.55;;;9.80;99.90;;;;;;5020580;28;20038;-80
2022/03/18 11:57:45;;;;;;;0.30;0.20;;;9.80;99.90;;;;;;5035177;28;20489;-80
2022/03/18 12:00:31;;;;;;;0.20;0.20;;;9.90;99.90;;;;;;5036120;28;20052;-80
2022/03/18 12:03:00;;;;;;;0.05;0.05;;;10.10;99.90;;;;;;5047383;28;20051;-80
2022/03/18 12:05:30;;;;;;;0.50;0.50;;;10.30;99.90;;;;;;5039248;28;20055;-80
2022/03/18 12:07:56;;;;;;;0.77;0.40;;;10.30;99.90;;;;;;5039336;28;20037;-79
2022/03/18 12:10:31;;;;;;;0.22;0.22;;;10.40;99.90;;;;;;5017714;28;20561;-80
2022/03/18 12:12:57;;;;;;;1.97;0.60;;;10.50;99.90;;;;;;5033918;28;20113;-80
2022/03/18 12:15:23;;;;;;;0.57;0.40;;;10.60;99.90;;;;;;5038221;28;20342;-80
2022/03/18 12:17:53;;;;;;;0.32;0.25;;;10.60;99.90;;;;;;5051184;28;20057;-80
2022/03/18 12:20:21;;;;;;;0.30;0.28;;;10.50;99.90;;;;;;5040133;28;20108;-80
2022/03/18 12:22:49;;;;;;;0.65;0.32;;;10.50;99.90;;;;;;5039196;28;20067;-80
2022/03/18 12:25:15;;;;;;;1.00;0.50;;;10.50;99.90;;;;;;5041620;28;20110;-79
2022/03/18 12:27:43;;;;;;;0.73;0.30;;;10.40;99.90;;;;;;5041055;28;20110;-79
2022/03/18 12:30:12;;;;;;;0.88;0.40;;;10.40;99.90;;;;;;5040081;28;20060;-80
2022/03/18 12:32:40;;;;;;;0.90;0.40;;;10.40;99.90;;;;;;5058057;28;20029;-80
2022/03/18 12:35:06;;;;;;;0.88;0.40;;;10.40;99.90;;;;;;5041798;28;20075;-80
2022/03/18 12:37:34;;;;;;;2.33;0.57;;;10.50;99.90;;;;;;5056459;28;20098;-79
2022/03/18 12:40:06;;;;;;;0.70;0.50;;;10.70;99.90;;;;;;5028563;28;20069;-79
2022/03/18 12:42:46;;;;;;;0.57;0.35;;;10.80;99.90;;;;;;5040517;28;20155;-79
2022/03/18 12:45:12;;;;;;;0.10;0.10;;;10.80;99.90;;;;;;5027131;28;20132;-79
2022/03/18 12:47:38;;;;;;;2.38;0.82;;;10.90;99.90;;;;;;5040740;28;21767;-78
2022/03/18 12:50:05;;;;;;;2.10;0.73;;;11.00;99.90;;;;;;5039975;28;20099;-79
2022/03/18 12:52:30;;;;;;;0.28;0.20;;;11.00;99.90;;;;;;5040207;28;20079;-80
2022/03/18 12:55:12;;;;;;;1.05;0.60;;;11.10;99.90;;;;;;5041613;28;20194;-79
2022/03/18 12:57:41;;;;;;;1.08;0.70;;;11.10;99.90;;;;;;5042712;28;20515;-79
2022/03/18 13:00:09;;;;;;;0.30;0.20;;;11.20;99.90;;;;;;5038646;28;20272;-79
2022/03/18 13:02:35;;;;;;;0.75;0.15;;;11.30;99.90;;;;;;5045080;28;20045;-80
2022/03/18 13:05:02;;;;;;;0.93;0.60;;;11.40;99.90;;;;;;5043968;28;20493;-80
2022/03/18 13:07:28;;;;;;;0.50;0.30;;;11.40;99.90;;;;;;5055798;28;20045;-79
2022/03/18 13:09:58;;;;;;;0.13;0.10;;;11.60;99.90;;;;;;5041075;28;20048;-79
2022/03/18 13:12:25;;;;;;;0.20;0.20;;;11.70;99.90;;;;;;5019367;28;20115;-79
2022/03/18 13:14:54;;;;;;;0.40;0.30;;;11.70;99.90;;;;;;5040639;28;20052;-79